• Join FlightAware (Why Join?)
  • Login
  • US Flag 
05:28AM EDT


 

Airport Tracker/Info


-or-


 

Live Flight TrackerFlight Track Log ✈ UAL341 ✈ 26-Apr-2013 ✈ KIAH - KMCO

Flight Track Log - Related Links

Times and Time Zones

All times are in EDT time to prevent confusion due to time zone crossing. See the UAL341 flight status page for this flight to view local times or setup timezone preferences in your user account.

Time Position Orientation Groundspeed Altitude Reporting Facility
EDT Latitude Longitude Course Direction KTS MPH feet Rate Location/Type
08:41AM 29.9614 -95.3411 86° East 140 161 800  Level Houston Center
08:42AM 29.9475 -95.3019 112° Southeast 188 216 2,100 1,740 Climbing Houston Center
08:43AM 29.9408 -95.2775 107° East 191 220 3,000 1,860 Climbing Houston Center
08:43AM 29.9389 -95.2331 93° East 259 298 4,000 960 Climbing Houston Center
08:44AM 29.8060 -94.9453 120° Southeast  Level FlightAware Approximate
08:44AM 29.9489 -95.1972 72° East 254 292 4,000  Level Houston Center
08:44AM 29.9611 -95.1556 71° East 276 318 4,000 1,320 Level Houston Center
08:45AM 29.7493 -94.8148 115° Southeast  Level FlightAware Approximate
08:45AM 29.9578 -95.1119 95° East 274 315 5,400  Level Houston Center
08:45AM 29.9414 -95.0567 109° East 286 329 7,500 3,000 Climbing Houston Center
08:46AM 29.7012 -94.6821 86° East  Level FlightAware Approximate
08:46AM 29.9339 -95.0269 106° East 278 320 8,500  Level Houston Center
08:46AM 29.9164 -94.9706 110° East 290 334 10,200 2,700 Climbing Houston Center
08:47AM 29.7110 -94.5365 86° East  Level FlightAware Approximate
08:47AM 29.9069 -94.9372 108° East 292 336 11,300  Level Houston Center
08:48AM 29.8769 -94.8386 109° East 320 368 12,800 1,800 Climbing Houston Center
08:49AM 29.8422 -94.7272 110° East 362 417 15,000 2,160 Climbing Houston Center
08:50AM 29.8069 -94.6133 110° East 372 428 17,300 1,980 Climbing Houston Center
08:51AM 29.7706 -94.4964 110° East 383 441 19,100 1,740 Climbing Houston Center
08:52AM 29.7322 -94.3750 110° East 396 456 21,000 1,800 Climbing Houston Center
08:53AM 29.7094 -94.2217 100° East 403 464 22,900 1,440 Climbing Houston Center
08:54AM 29.6944 -94.1003 98° East 420 483 24,000 1,140 Climbing Houston Center
08:55AM 29.6853 -93.9600 94° East 437 503 25,300 1,260 Climbing Houston Center
08:56AM 29.6853 -93.7850 90° East 455 524 26,700 1,260 Climbing Houston Center
08:57AM 29.6831 -93.6356 91° East 467 537 27,900 1,020 Climbing Houston Center
08:58AM 29.6808 -93.4831 91° East 477 549 28,900 960 Climbing Houston Center
08:59AM 29.6789 -93.3261 91° East 493 567 29,900 1,020 Climbing Houston Center
09:00AM 29.6767 -93.1667 91° East 502 578 31,100 1,200 Climbing Houston Center
09:01AM 29.6733 -92.9764 91° East 501 577 32,400 1,140 Climbing Houston Center
09:02AM 29.6722 -92.8164 90° East 503 579 33,500 960 Climbing Houston Center
09:03AM 29.6678 -92.6569 92° East 503 579 34,400 960 Climbing Houston Center
09:04AM 29.6661 -92.4978 91° East 502 578 35,500 960 Climbing Houston Center
09:05AM 29.6644 -92.3383 91° East 501 577 36,400 720 Climbing Houston Center
09:06AM 29.6597 -92.1806 92° East 498 573 37,000 240 Climbing Houston Center
09:07AM 29.6283 -91.9953 101° East 493 567 37,000  Level Houston Center
09:08AM 29.5950 -91.8425 104° East 494 568 37,000  Level Houston Center
09:09AM 29.5631 -91.6903 104° East 497 572 37,000  Level Houston Center
09:10AM 29.5294 -91.5364 104° East 499 574 37,000 -60 Level Houston Center
09:11AM 29.4964 -91.3822 104° East 498 573 36,900 -60 Descending Houston Center
09:12AM 29.4636 -91.2278 104° East 500 575 36,900  Level Houston Center
09:13AM 29.4225 -91.0431 104° East 500 575 37,000  Climbing Houston Center
09:14AM 29.3878 -90.8892 104° East 501 577 36,900 -60 Descending Houston Center
09:15AM 29.3542 -90.7347 104° East 502 578 36,900  Level Houston Center
09:17AM 29.3189 -90.5794 105° East 503 579 37,000  Climbing Houston Center
09:18AM 29.2839 -90.4242 104° East 506 582 37,000  Level Houston Center
09:19AM 29.2494 -90.2708 104° East 502 578 37,000 -60 Level Houston Center
09:20AM 29.2072 -90.0856 105° East 502 578 36,900 -60 Descending Houston Center
09:21AM 29.1719 -89.9319 105° East 503 579 36,900  Level Houston Center
09:22AM 29.1361 -89.7789 105° East 502 578 36,900  Level Houston Center
09:23AM 29.1003 -89.6239 105° East 506 582 36,900  Level Houston Center
09:24AM 29.0653 -89.4683 104° East 507 583 36,900  Level Houston Center
09:25AM 29.0286 -89.3156 105° East 504 580 37,000  Climbing Houston Center
09:26AM 28.9847 -89.1311 105° East 503 579 37,000  Level Houston Center
09:27AM 28.9497 -88.9769 105° East 504 580 37,000  Level Houston Center
09:28AM 28.9122 -88.8242 106° East 502 578 37,000  Level Houston Center
09:29AM 28.8753 -88.6706 105° East 503 579 37,000 -60 Level Houston Center
09:30AM 28.8328 -88.5189 108° East 501 577 36,900 -60 Descending Houston Center
09:31AM 28.7911 -88.3672 107° East 502 578 36,900  Level Houston Center
09:32AM 28.7486 -88.2161 108° East 503 579 37,000  Climbing Houston Center
09:33AM 28.7044 -88.0553 107° East 505 581 37,000  Level Houston Center
09:34AM 28.6533 -87.8739 108° East 505 581 37,000 -60 Level Houston Center
09:35AM 28.6100 -87.7217 108° East 505 581 36,900 -60 Descending Houston Center
09:36AM 28.5672 -87.5714 108° East 504 580 36,900  Level Houston Center
09:37AM 28.5397 -87.4789 109° East 498 573 37,000  Climbing Jacksonville Center
09:38AM 28.4972 -87.3233 107° East 503 579 37,000  Level Jacksonville Center
09:39AM 28.4522 -87.1703 108° East 503 579 37,000  Level Jacksonville Center
09:40AM 28.4111 -87.0222 107° East 505 581 37,000 -60 Level Jacksonville Center
09:41AM 28.3661 -86.8672 108° East 505 581 36,900 -60 Descending Jacksonville Center
09:42AM 28.3206 -86.7192 109° East 505 581 36,900  Level Jacksonville Center
09:43AM 28.2769 -86.5692 108° East 505 581 36,900  Level Jacksonville Center
09:44AM 28.2308 -86.4192 109° East 505 581 37,000  Climbing Jacksonville Center
09:45AM 28.1869 -86.2669 108° East 510 587 37,000  Level Jacksonville Center
09:46AM 28.1431 -86.1147 108° East 501 577 37,000 -60 Level Jacksonville Center
09:47AM 28.0947 -85.9581 109° East 513 590 36,900  Descending Jacksonville Center
09:48AM 28.0519 -85.8156 109° East 510 587 37,000  Climbing Jacksonville Center
09:49AM 28.0075 -85.6617 108° East 510 587 37,000  Level Jacksonville Center
09:50AM 27.9606 -85.5100 109° East 503 579 37,000 -60 Level Jacksonville Center
09:51AM 27.8939 -85.2636 107° East 517 595 36,900  Descending Miami Center
09:52AM 27.8822 -85.1056 95° East 511 588 37,000  Climbing Miami Center
09:53AM 27.8808 -84.9483 91° East 502 578 37,000 -60 Level Miami Center
09:54AM 27.8772 -84.7908 91° East 502 578 36,900 -900 Descending Miami Center
09:55AM 27.8794 -84.6339 89° East 502 578 35,300 -1,020 Descending Miami Center
09:56AM 27.8731 -84.4811 93° East 502 578 34,900 -180 Descending Miami Center
09:57AM 27.8708 -84.3261 91° East 497 572 35,000  Climbing Miami Center
09:58AM 27.8661 -84.1733 92° East 497 572 35,000 -720 Level Miami Center
09:59AM 27.8614 -84.0181 92° East 497 572 33,600 -1,620 Descending Miami Center
10:00AM 27.8625 -83.8703 89° East 490 564 31,800 -1,800 Descending Miami Center
10:01AM 27.8592 -83.7247 91° East 478 550 30,100 -1,920 Descending Miami Center
10:02AM 27.8553 -83.5861 92° East 456 525 28,000 -2,100 Descending Miami Center
10:03AM 27.8492 -83.4497 93° East 445 512 26,000 -2,460 Descending Miami Center
10:04AM 27.8450 -83.3111 92° East 439 505 23,100 -1,560 Descending Miami Center
10:05AM 27.8425 -83.1772 91° East 439 505 22,900 -60 Descending Miami Center
10:06AM 27.8419 -83.0433 90° East 434 499 23,000 -420 Climbing Miami Center
10:07AM 27.8375 -82.9069 92° East 434 499 22,100 -900 Descending Miami Center
10:08AM 27.8367 -82.7781 90° East 423 487 21,200 -900 Descending Miami Center
10:09AM 27.8272 -82.6508 95° East 417 480 20,300 -960 Descending Miami Center
10:10AM 27.8300 -82.5289 88° East 403 464 19,300 -1,020 Descending Miami Center
10:11AM 27.8636 -82.4156 71° East 378 435 18,300 -900 Descending Miami Center
10:12AM 27.9017 -82.2906 71° East 378 435 17,600 -900 Descending Miami Center
10:13AM 27.9372 -82.1797 70° East 378 435 16,600 -1,140 Descending Miami Center
10:15AM 28.0167 -81.9500 69° East 356 410 14,100 -1,140 Descending Orlando TRACON
10:17AM 28.0667 -81.8500 60° Northeast 332 382 13,000 -600 Descending Orlando TRACON
10:17AM 28.1000 -81.7667 66° East 337 388 13,000 -780 Level Orlando TRACON
10:18AM 28.1500 -81.6833 56° Northeast 322 371 11,600 -1,320 Descending Orlando TRACON
10:19AM 28.2000 -81.6167 50° Northeast 305 351 10,400 -1,260 Descending Orlando TRACON
10:20AM 28.2500 -81.5333 56° Northeast 276 318 9,000 -660 Descending Orlando TRACON
10:22AM 28.3000 -81.4500 56° Northeast 280 322 9,000  Level Orlando TRACON
10:23AM 28.3667 -81.4167 24° Northeast 231 266 9,000 -360 Level Orlando TRACON
10:24AM 28.4333 -81.4167 360° North 236 272 8,300 -900 Descending Orlando TRACON
10:25AM 28.4833 -81.4167 360° North 236 272 7,300 -1,560 Descending Orlando TRACON
10:26AM 28.5500 -81.4167 360° North 223 257 5,400 -1,800 Descending Orlando TRACON
10:27AM 28.5833 -81.3833 41° Northeast 199 229 3,600 -1,680 Descending Orlando TRACON